createdAt,value
2023-12-05T00:00:09.187Z,44.13
2023-12-05T00:02:38.096Z,42.43
2023-12-05T00:05:08.124Z,43.40
2023-12-05T00:07:38.282Z,63.70
2023-12-05T00:10:07.943Z,54.73
2023-12-05T00:12:38.595Z,56.20
2023-12-05T00:15:08.391Z,60.63
2023-12-05T00:17:37.165Z,53.67
2023-12-05T00:20:06.094Z,43.43
2023-12-05T00:22:34.699Z,40.63
2023-12-05T00:25:05.554Z,48.93
2023-12-05T00:27:34.418Z,46.30
2023-12-05T00:30:02.960Z,44.93
2023-12-05T00:32:33.233Z,47.83
2023-12-05T00:35:01.879Z,41.07
2023-12-05T00:37:29.432Z,45.10
2023-12-05T00:39:58.437Z,45.17
2023-12-05T00:42:28.457Z,43.93
2023-12-05T00:44:57.037Z,39.73
2023-12-05T00:47:25.585Z,43.10
2023-12-05T00:49:54.238Z,41.63
2023-12-05T00:52:23.412Z,42.20
2023-12-05T00:54:51.923Z,40.83
2023-12-05T00:57:20.504Z,41.30
2023-12-05T00:59:50.440Z,41.40
2023-12-05T01:02:18.895Z,46.70
2023-12-05T01:04:47.544Z,46.13
2023-12-05T01:07:16.316Z,123.50
2023-12-05T01:09:45.057Z,138.40
2023-12-05T01:12:14.354Z,199.27
2023-12-05T01:14:43.948Z,63.60
2023-12-05T01:17:14.128Z,49.17
2023-12-05T01:19:42.788Z,48.43
2023-12-05T01:22:11.323Z,55.17
2023-12-05T01:24:40.189Z,41.47
2023-12-05T01:27:09.210Z,47.70
2023-12-05T01:29:37.814Z,46.27
2023-12-05T01:32:06.686Z,39.40
2023-12-05T01:34:37.942Z,40.07
2023-12-05T01:37:06.454Z,42.53
2023-12-05T01:39:35.204Z,39.37
2023-12-05T01:42:03.829Z,39.73
2023-12-05T01:44:32.299Z,50.77
2023-12-05T01:47:01.827Z,44.50
2023-12-05T01:49:30.835Z,38.27
2023-12-05T01:52:02.593Z,45.70
2023-12-05T01:54:34.065Z,43.80
2023-12-05T01:57:03.137Z,36.57
2023-12-05T01:59:31.693Z,40.37
2023-12-05T02:02:06.143Z,46.73
2023-12-05T02:04:36.725Z,39.63
2023-12-05T02:07:08.213Z,39.10
2023-12-05T02:09:38.961Z,43.73
2023-12-05T02:12:08.048Z,44.83
2023-12-05T02:14:36.600Z,45.13
2023-12-05T02:17:12.876Z,51.17
2023-12-05T02:19:55.275Z,46.60
2023-12-05T02:22:56.599Z,49.33
2023-12-05T02:25:40.576Z,50.67
2023-12-05T02:28:12.220Z,47.77
2023-12-05T02:30:40.712Z,54.73
2023-12-05T02:33:09.355Z,48.03
2023-12-05T02:35:38.483Z,46.47
2023-12-05T02:38:14.937Z,44.80
2023-12-05T02:40:53.141Z,43.23
2023-12-05T02:43:30.833Z,40.47
2023-12-05T02:46:08.817Z,41.57
2023-12-05T02:48:40.205Z,39.60
2023-12-05T02:51:09.179Z,41.93
2023-12-05T02:53:38.045Z,46.83
2023-12-05T02:56:07.771Z,39.27
2023-12-05T02:58:37.715Z,47.53
2023-12-05T03:01:06.868Z,43.50
2023-12-05T03:03:35.455Z,42.20
2023-12-05T03:06:04.271Z,42.30
2023-12-05T03:08:32.905Z,44.70
2023-12-05T03:11:07.089Z,43.43
2023-12-05T03:13:42.570Z,48.80
2023-12-05T03:16:11.827Z,45.83
2023-12-05T03:18:40.779Z,51.70
2023-12-05T03:21:10.754Z,42.17
2023-12-05T03:23:39.410Z,42.53
2023-12-05T03:26:08.851Z,47.17
2023-12-05T03:28:37.447Z,45.37
2023-12-05T03:31:07.566Z,46.30
2023-12-05T03:33:38.866Z,41.43
2023-12-05T03:36:08.413Z,50.50
2023-12-05T03:38:37.133Z,46.23
2023-12-05T03:41:06.138Z,50.47
2023-12-05T03:43:35.035Z,41.43
2023-12-05T03:46:03.736Z,42.63
2023-12-05T03:48:34.181Z,48.10
2023-12-05T03:51:03.006Z,47.20
2023-12-05T03:53:32.037Z,45.43
2023-12-05T03:56:00.498Z,54.67
2023-12-05T03:58:29.597Z,60.17
2023-12-05T04:00:58.962Z,54.43
2023-12-05T04:03:28.336Z,55.17
2023-12-05T04:05:58.633Z,48.63
2023-12-05T04:08:27.351Z,46.67
2023-12-05T04:10:55.938Z,47.60
2023-12-05T04:13:29.789Z,50.77
2023-12-05T04:15:59.248Z,46.03
2023-12-05T04:18:27.795Z,44.33
2023-12-05T04:20:57.990Z,48.30
2023-12-05T04:23:26.561Z,47.30
2023-12-05T04:25:55.164Z,42.50
2023-12-05T04:28:23.858Z,46.07
2023-12-05T04:30:52.499Z,43.93
2023-12-05T04:33:21.136Z,45.23
2023-12-05T04:35:49.700Z,47.90
2023-12-05T04:38:20.042Z,46.17
2023-12-05T04:40:48.507Z,54.63
2023-12-05T04:43:17.613Z,53.47
2023-12-05T04:45:47.091Z,53.57
2023-12-05T04:48:15.958Z,53.83
2023-12-05T04:50:45.800Z,51.40
2023-12-05T04:53:14.612Z,51.23
2023-12-05T04:55:44.852Z,51.03
2023-12-05T04:58:13.451Z,49.37
2023-12-05T05:00:42.073Z,49.30
2023-12-05T05:03:10.928Z,47.23
2023-12-05T05:05:39.669Z,53.23
2023-12-05T05:08:08.692Z,63.33
2023-12-05T05:10:37.227Z,59.03
2023-12-05T05:13:07.123Z,53.83
2023-12-05T05:15:35.674Z,60.77
2023-12-05T05:18:04.284Z,75.77
2023-12-05T05:20:33.017Z,85.67
2023-12-05T05:23:01.880Z,73.83
2023-12-05T05:25:33.459Z,64.57
2023-12-05T05:28:02.144Z,53.97
2023-12-05T05:30:32.108Z,45.50
2023-12-05T05:33:00.768Z,47.67
2023-12-05T05:35:30.739Z,50.03
2023-12-05T05:37:59.228Z,46.77
2023-12-05T05:40:29.314Z,45.20
2023-12-05T05:42:57.902Z,49.27
2023-12-05T05:45:26.569Z,64.13
2023-12-05T05:47:57.238Z,66.03
2023-12-05T05:50:25.785Z,64.30
2023-12-05T05:52:54.471Z,65.20
2023-12-05T05:55:26.253Z,71.53
2023-12-05T05:57:55.544Z,63.47
2023-12-05T06:00:24.701Z,50.27
2023-12-05T06:02:53.230Z,59.83
2023-12-05T06:05:23.232Z,58.60
2023-12-05T06:07:51.763Z,50.97
2023-12-05T06:10:20.548Z,54.70
2023-12-05T06:12:49.262Z,49.40
2023-12-05T06:15:18.873Z,51.17
2023-12-05T06:17:47.533Z,52.63
2023-12-05T06:20:16.214Z,61.17
2023-12-05T06:22:46.209Z,56.07
2023-12-05T06:25:14.737Z,55.23
2023-12-05T06:27:44.065Z,57.03
2023-12-05T06:30:21.321Z,64.20
2023-12-05T06:32:53.722Z,61.17
2023-12-05T06:35:22.390Z,59.40
2023-12-05T06:37:53.842Z,59.50
2023-12-05T06:40:22.628Z,66.00
2023-12-05T06:42:51.600Z,58.73
2023-12-05T06:45:20.149Z,65.67
2023-12-05T06:47:49.237Z,66.93
2023-12-05T06:50:18.137Z,70.43
2023-12-05T06:52:46.782Z,67.73
2023-12-05T06:55:16.747Z,65.93
2023-12-05T06:57:45.222Z,66.27
2023-12-05T07:00:15.437Z,61.77
2023-12-05T07:02:44.014Z,69.80
2023-12-05T07:05:12.865Z,78.90
2023-12-05T07:07:41.924Z,75.93
2023-12-05T07:10:10.683Z,106.57
2023-12-05T07:12:41.157Z,105.87
2023-12-05T07:15:11.672Z,85.80
2023-12-05T07:17:40.274Z,91.03
2023-12-05T07:20:10.611Z,92.20
2023-12-05T07:22:39.826Z,85.23
2023-12-05T07:25:08.846Z,74.07
2023-12-05T07:27:37.718Z,78.33
2023-12-05T07:30:09.843Z,67.50
2023-12-05T07:32:38.474Z,78.70
2023-12-05T07:35:07.930Z,75.57
2023-12-05T07:37:36.427Z,74.67
2023-12-05T07:40:07.022Z,79.20
2023-12-05T07:42:35.625Z,92.30
2023-12-05T07:45:06.511Z,83.83
2023-12-05T07:47:37.142Z,83.07
2023-12-05T07:50:06.549Z,77.20
2023-12-05T07:52:35.471Z,80.27
2023-12-05T07:55:03.967Z,86.20
2023-12-05T07:57:32.914Z,87.67
2023-12-05T08:00:04.038Z,77.70
2023-12-05T08:02:32.907Z,76.97
2023-12-05T08:05:03.397Z,67.20
2023-12-05T08:07:32.121Z,71.87
2023-12-05T08:10:00.724Z,67.27
2023-12-05T08:12:29.286Z,77.53
2023-12-05T08:14:57.758Z,76.43
2023-12-05T08:17:26.258Z,80.07
2023-12-05T08:19:54.994Z,70.67
2023-12-05T08:22:26.733Z,73.17
2023-12-05T08:24:55.390Z,65.67
2023-12-05T08:27:24.804Z,65.47
2023-12-05T08:29:53.392Z,67.37
2023-12-05T08:32:21.599Z,55.83
2023-12-05T08:34:50.568Z,57.77
2023-12-05T08:37:19.292Z,51.17
2023-12-05T08:39:49.240Z,54.33
2023-12-05T08:42:17.730Z,43.23
2023-12-05T08:44:46.660Z,46.83
2023-12-05T08:47:15.291Z,51.57
2023-12-05T08:49:44.014Z,45.83
2023-12-05T08:52:12.676Z,56.80
2023-12-05T08:54:41.393Z,53.90
2023-12-05T08:57:11.743Z,46.03
2023-12-05T08:59:40.851Z,54.40
2023-12-05T09:02:09.506Z,53.60
2023-12-05T09:04:39.363Z,51.43
2023-12-05T09:07:08.174Z,52.17
2023-12-05T09:09:39.992Z,44.13
2023-12-05T09:12:08.676Z,42.63
2023-12-05T09:14:38.637Z,45.43
2023-12-05T09:17:10.588Z,49.13
2023-12-05T09:19:39.171Z,44.23
2023-12-05T09:22:07.669Z,48.27
2023-12-05T09:24:36.176Z,50.47
2023-12-05T09:27:04.796Z,50.13
2023-12-05T09:29:33.373Z,53.27
2023-12-05T09:32:03.320Z,56.40
2023-12-05T09:34:31.909Z,54.37
2023-12-05T09:37:00.431Z,58.63
2023-12-05T09:39:30.564Z,50.93
2023-12-05T09:42:04.832Z,52.83
2023-12-05T09:44:35.302Z,49.87
2023-12-05T09:47:07.179Z,44.80
2023-12-05T09:49:35.889Z,54.73
2023-12-05T09:52:04.873Z,44.67
2023-12-05T09:54:36.329Z,47.10
2023-12-05T09:57:05.261Z,42.07
2023-12-05T09:59:33.814Z,46.53
2023-12-05T10:02:05.703Z,43.20
2023-12-05T10:04:43.330Z,48.63
2023-12-05T10:07:13.134Z,47.50
2023-12-05T10:09:42.923Z,51.73
2023-12-05T10:12:12.666Z,51.37
2023-12-05T10:14:42.074Z,48.87
2023-12-05T10:17:12.138Z,45.47
2023-12-05T10:19:41.606Z,45.53
2023-12-05T10:22:10.411Z,40.70
2023-12-05T10:24:44.366Z,39.83
2023-12-05T10:27:13.155Z,37.20
2023-12-05T10:29:43.066Z,37.73
2023-12-05T10:32:14.987Z,34.23
2023-12-05T10:34:49.538Z,36.23
2023-12-05T10:37:22.730Z,39.63
2023-12-05T10:39:52.056Z,36.50
2023-12-05T10:42:20.818Z,38.47
2023-12-05T10:44:49.685Z,44.97
2023-12-05T10:47:20.465Z,40.77
2023-12-05T10:49:51.186Z,41.73
2023-12-05T10:52:20.265Z,42.10
2023-12-05T10:54:57.970Z,46.17
2023-12-05T10:57:34.689Z,41.73
2023-12-05T11:00:06.974Z,39.77
2023-12-05T11:02:39.920Z,42.93
2023-12-05T11:05:11.623Z,38.30
2023-12-05T11:07:40.295Z,35.50
2023-12-05T11:10:11.762Z,43.67
2023-12-05T11:12:42.633Z,42.60
2023-12-05T11:15:15.082Z,37.53
2023-12-05T11:17:51.632Z,34.67
2023-12-05T11:20:30.258Z,34.27
2023-12-05T11:23:18.903Z,34.93
2023-12-05T11:25:56.374Z,33.00
2023-12-05T11:28:44.632Z,33.30
2023-12-05T11:31:22.223Z,30.30
2023-12-05T11:34:10.730Z,28.90
2023-12-05T11:36:52.489Z,29.47
2023-12-05T11:39:21.729Z,33.40
2023-12-05T11:42:11.754Z,29.60
2023-12-05T11:44:41.052Z,28.03
2023-12-05T11:47:15.971Z,21.33
2023-12-05T11:49:54.782Z,21.20
2023-12-05T11:52:24.506Z,19.60
2023-12-05T11:54:55.280Z,20.53
2023-12-05T11:57:25.713Z,22.00
2023-12-05T11:59:55.949Z,21.40
2023-12-05T12:02:42.436Z,19.63
2023-12-05T12:05:14.152Z,18.70
2023-12-05T12:07:54.053Z,20.23
2023-12-05T12:10:22.906Z,20.87
2023-12-05T12:12:52.492Z,24.43
2023-12-05T12:15:22.568Z,25.97
2023-12-05T12:17:51.357Z,43.37
2023-12-05T12:20:21.715Z,32.83
2023-12-05T12:22:52.787Z,27.00
2023-12-05T12:25:21.420Z,26.73
2023-12-05T12:27:49.976Z,35.70
2023-12-05T12:30:19.920Z,31.50
2023-12-05T12:32:57.627Z,32.67
2023-12-05T12:35:28.956Z,29.10
2023-12-05T12:37:58.862Z,27.87
2023-12-05T12:40:28.328Z,29.67
2023-12-05T12:42:57.519Z,27.43
2023-12-05T12:45:27.801Z,32.23
2023-12-05T12:47:57.550Z,34.27
2023-12-05T12:50:27.868Z,31.77
2023-12-05T12:52:56.447Z,37.37
2023-12-05T12:55:25.266Z,38.80
2023-12-05T12:57:55.494Z,37.13
2023-12-05T13:00:32.443Z,38.23
2023-12-05T13:03:06.136Z,41.60
2023-12-05T13:05:37.790Z,44.33
2023-12-05T13:08:07.037Z,48.33
2023-12-05T13:10:37.902Z,44.13
2023-12-05T13:13:07.125Z,47.13
2023-12-05T13:15:35.815Z,39.53
2023-12-05T13:18:05.586Z,43.73
2023-12-05T13:20:49.106Z,45.20
2023-12-05T13:23:18.620Z,41.17
2023-12-05T13:25:47.292Z,42.03
2023-12-05T13:28:16.029Z,38.97
2023-12-05T13:30:44.653Z,41.53
2023-12-05T13:33:16.403Z,40.87
2023-12-05T13:35:46.718Z,57.10
2023-12-05T13:38:15.301Z,56.17
2023-12-05T13:40:43.828Z,59.77
2023-12-05T13:43:12.389Z,60.77
2023-12-05T13:45:40.988Z,53.10
2023-12-05T13:48:09.559Z,62.90
2023-12-05T13:50:38.103Z,62.43
2023-12-05T13:53:08.059Z,58.30
2023-12-05T13:55:36.640Z,56.97
2023-12-05T13:58:05.220Z,52.60
2023-12-05T14:00:34.090Z,67.07
2023-12-05T14:03:03.616Z,74.90
2023-12-05T14:05:32.926Z,57.53
2023-12-05T14:08:02.454Z,62.83
2023-12-05T14:10:32.456Z,59.67
2023-12-05T14:13:01.116Z,69.73
2023-12-05T14:15:30.043Z,78.60
2023-12-05T14:17:59.001Z,117.73
2023-12-05T14:20:27.723Z,143.97
2023-12-05T14:22:56.280Z,227.03
2023-12-05T14:25:24.887Z,188.23
2023-12-05T14:27:56.061Z,153.30
2023-12-05T14:30:24.950Z,150.20
2023-12-05T14:32:53.545Z,136.77
2023-12-05T14:35:22.826Z,124.93
2023-12-05T14:37:51.529Z,107.00
2023-12-05T14:40:21.128Z,127.57
2023-12-05T14:42:50.949Z,95.40
2023-12-05T14:45:23.148Z,98.63
2023-12-05T14:47:53.206Z,87.70
2023-12-05T14:50:21.826Z,83.50
2023-12-05T14:52:51.090Z,71.17
2023-12-05T14:55:19.738Z,76.53
2023-12-05T14:57:48.325Z,63.43
2023-12-05T15:00:18.661Z,63.40
2023-12-05T15:02:48.849Z,54.07
2023-12-05T15:05:18.208Z,61.87
2023-12-05T15:07:48.485Z,76.07
2023-12-05T15:10:18.075Z,73.13
2023-12-05T15:12:56.255Z,86.07
2023-12-05T15:15:26.924Z,84.60
2023-12-05T15:17:57.814Z,106.43
2023-12-05T15:20:26.829Z,100.90
2023-12-05T15:22:57.250Z,75.40
2023-12-05T15:25:25.809Z,60.37
2023-12-05T15:27:54.382Z,58.90
2023-12-05T15:30:23.467Z,55.77
2023-12-05T15:32:57.144Z,51.10
2023-12-05T15:35:27.112Z,54.97
2023-12-05T15:37:55.692Z,57.03
2023-12-05T15:40:24.198Z,50.10
2023-12-05T15:42:52.830Z,50.20
2023-12-05T15:45:21.978Z,46.03
2023-12-05T15:47:51.174Z,45.37
2023-12-05T15:50:21.449Z,46.93
2023-12-05T15:52:52.156Z,47.97
2023-12-05T15:55:23.582Z,53.60
2023-12-05T15:57:52.475Z,50.10
2023-12-05T16:00:21.510Z,52.40
2023-12-05T16:02:50.041Z,67.70
2023-12-05T16:05:18.859Z,67.33
2023-12-05T16:07:47.758Z,67.10
2023-12-05T16:10:18.128Z,72.37
2023-12-05T16:12:53.027Z,63.53
2023-12-05T16:15:22.245Z,59.83
2023-12-05T16:17:51.686Z,52.77
2023-12-05T16:20:20.244Z,53.57
2023-12-05T16:22:49.554Z,48.30
2023-12-05T16:25:19.951Z,57.13
2023-12-05T16:27:48.467Z,49.70
2023-12-05T16:30:17.441Z,60.70
2023-12-05T16:32:46.004Z,57.13
2023-12-05T16:35:14.656Z,54.07
2023-12-05T16:37:43.392Z,48.90
2023-12-05T16:40:12.517Z,49.90
2023-12-05T16:42:42.714Z,56.47
2023-12-05T16:45:12.236Z,54.33
2023-12-05T16:47:41.204Z,51.27
2023-12-05T16:50:10.488Z,53.97
2023-12-05T16:52:39.046Z,57.87
2023-12-05T16:55:07.769Z,59.73
2023-12-05T16:57:36.427Z,54.63
2023-12-05T17:00:09.389Z,59.53
2023-12-05T17:02:38.033Z,54.83
2023-12-05T17:05:07.265Z,56.73
2023-12-05T17:07:35.834Z,52.37
2023-12-05T17:10:04.821Z,48.10
2023-12-05T17:12:33.475Z,48.07
2023-12-05T17:15:02.604Z,46.33
2023-12-05T17:17:34.893Z,49.90
2023-12-05T17:20:04.647Z,55.17
2023-12-05T17:22:33.515Z,59.00
2023-12-05T17:25:02.299Z,60.67
2023-12-05T17:27:31.089Z,59.83
2023-12-05T17:29:59.642Z,58.03
2023-12-05T17:32:28.674Z,58.00
2023-12-05T17:34:59.407Z,70.73
2023-12-05T17:37:32.295Z,60.67
2023-12-05T17:40:01.030Z,59.40
2023-12-05T17:42:30.231Z,60.20
2023-12-05T17:44:58.849Z,65.43
2023-12-05T17:47:27.455Z,63.63
2023-12-05T17:49:59.220Z,60.73
2023-12-05T17:52:27.796Z,58.13
2023-12-05T17:54:56.296Z,60.00
2023-12-05T17:57:24.869Z,69.03
2023-12-05T17:59:53.370Z,70.27
2023-12-05T18:02:24.850Z,69.73
2023-12-05T18:04:54.011Z,64.53
2023-12-05T18:07:52.497Z,59.27
2023-12-05T18:10:14.580Z,57.63
2023-12-05T18:12:43.616Z,61.37
2023-12-05T18:15:12.860Z,55.73
2023-12-05T18:17:42.973Z,48.67
2023-12-05T18:20:12.491Z,49.00
2023-12-05T18:22:46.141Z,53.80
2023-12-05T18:25:15.972Z,61.33
2023-12-05T18:27:46.861Z,52.30
2023-12-05T18:30:15.644Z,64.73
2023-12-05T18:32:44.752Z,56.40
2023-12-05T18:35:14.076Z,54.47
2023-12-05T18:37:44.562Z,59.07
2023-12-05T18:40:14.762Z,55.73
2023-12-05T18:42:44.802Z,52.60
2023-12-05T18:45:13.565Z,53.47
2023-12-05T18:47:43.366Z,49.57
2023-12-05T18:50:12.375Z,50.50
2023-12-05T18:52:41.264Z,53.20
2023-12-05T18:55:11.558Z,55.57
2023-12-05T18:57:47.778Z,54.20
2023-12-05T19:00:19.094Z,62.23
2023-12-05T19:02:47.855Z,59.47
2023-12-05T19:05:16.557Z,65.73
2023-12-05T19:07:45.203Z,66.77
2023-12-05T19:10:15.560Z,63.20
2023-12-05T19:12:46.417Z,62.47
2023-12-05T19:15:16.412Z,61.93
2023-12-05T19:17:46.484Z,60.07
2023-12-05T19:20:15.591Z,59.80
2023-12-05T19:22:44.540Z,54.83
2023-12-05T19:25:15.051Z,132.73
2023-12-05T19:27:43.590Z,206.87
2023-12-05T19:30:13.051Z,89.60
2023-12-05T19:32:42.153Z,79.57
2023-12-05T19:35:11.524Z,83.13
2023-12-05T19:37:40.688Z,75.33
2023-12-05T19:40:10.430Z,72.27
2023-12-05T19:42:40.606Z,66.87
2023-12-05T19:45:10.058Z,64.80
2023-12-05T19:47:39.275Z,64.10
2023-12-05T19:50:09.274Z,106.57
2023-12-05T19:52:37.858Z,294.97
2023-12-05T19:55:07.641Z,113.33
2023-12-05T19:57:36.344Z,79.20
2023-12-05T20:00:07.591Z,68.90
2023-12-05T20:02:36.687Z,66.67
2023-12-05T20:05:05.981Z,69.97
2023-12-05T20:07:34.552Z,71.50
2023-12-05T20:10:03.211Z,75.93
2023-12-05T20:12:32.047Z,73.40
2023-12-05T20:15:00.822Z,85.97
2023-12-05T20:17:30.833Z,91.90
2023-12-05T20:19:59.451Z,76.10
2023-12-05T20:22:29.889Z,72.87
2023-12-05T20:24:58.772Z,68.43
2023-12-05T20:27:28.463Z,71.70
2023-12-05T20:29:57.641Z,78.63
2023-12-05T20:32:26.477Z,78.80
2023-12-05T20:34:56.578Z,79.73
2023-12-05T20:37:25.145Z,85.90
2023-12-05T20:39:53.695Z,102.00
2023-12-05T20:42:27.125Z,111.07
2023-12-05T20:44:56.924Z,129.23
2023-12-05T20:47:25.930Z,140.87
2023-12-05T20:49:55.878Z,116.13
2023-12-05T20:52:25.600Z,113.80
2023-12-05T20:54:54.333Z,110.80
2023-12-05T20:57:22.996Z,100.17
2023-12-05T20:59:51.708Z,95.47
2023-12-05T21:02:20.233Z,158.40
2023-12-05T21:04:49.199Z,174.50
2023-12-05T21:07:21.307Z,133.77
2023-12-05T21:09:50.589Z,79.07
2023-12-05T21:12:19.722Z,72.23
2023-12-05T21:14:48.317Z,64.73
2023-12-05T21:17:16.779Z,249.50
2023-12-05T21:19:45.387Z,586.60
2023-12-05T21:22:13.937Z,528.27
2023-12-05T21:24:44.915Z,260.77
2023-12-05T21:27:13.463Z,78.10
2023-12-05T21:29:42.400Z,72.40
2023-12-05T21:32:10.996Z,65.67
2023-12-05T21:34:43.807Z,250.83
2023-12-05T21:37:12.017Z,385.60
2023-12-05T21:39:40.719Z,135.30
2023-12-05T21:42:11.495Z,117.07
2023-12-05T21:44:41.657Z,95.67
2023-12-05T21:47:10.831Z,87.10
2023-12-05T21:49:39.534Z,78.70
2023-12-05T21:52:08.938Z,75.87
2023-12-05T21:54:37.569Z,71.07
2023-12-05T21:57:06.786Z,75.33
2023-12-05T21:59:41.537Z,71.90
2023-12-05T22:02:10.124Z,76.07
2023-12-05T22:04:38.815Z,78.97
2023-12-05T22:07:07.615Z,74.40
2023-12-05T22:09:36.428Z,65.80
2023-12-05T22:12:05.340Z,70.67
2023-12-05T22:14:33.896Z,72.60
2023-12-05T22:17:04.012Z,65.70
2023-12-05T22:19:32.531Z,74.03
2023-12-05T22:22:01.488Z,76.23
2023-12-05T22:24:32.897Z,70.60
2023-12-05T22:27:01.882Z,73.07
2023-12-05T22:29:30.547Z,74.33
2023-12-05T22:31:59.437Z,71.00
2023-12-05T22:34:29.656Z,76.37
2023-12-05T22:36:58.644Z,76.70
2023-12-05T22:39:27.328Z,70.27
2023-12-05T22:41:55.866Z,68.77
2023-12-05T22:44:24.425Z,70.20
2023-12-05T22:46:53.016Z,68.87
2023-12-05T22:49:21.592Z,79.83
2023-12-05T22:51:51.722Z,90.93
2023-12-05T22:54:20.398Z,83.30
2023-12-05T22:56:49.000Z,72.37
2023-12-05T22:59:17.519Z,72.83
2023-12-05T23:01:46.060Z,83.13
2023-12-05T23:04:15.653Z,232.67
2023-12-05T23:06:44.279Z,503.90
2023-12-05T23:09:14.303Z,261.57
2023-12-05T23:11:43.179Z,198.30
2023-12-05T23:14:11.686Z,265.53
2023-12-05T23:16:40.263Z,96.17
2023-12-05T23:19:09.034Z,209.37
2023-12-05T23:21:39.183Z,340.40
2023-12-05T23:24:08.365Z,273.37
2023-12-05T23:26:38.314Z,239.13
2023-12-05T23:29:07.233Z,103.93
2023-12-05T23:31:35.787Z,94.37
2023-12-05T23:34:04.714Z,91.93
2023-12-05T23:36:33.742Z,93.87
2023-12-05T23:39:02.726Z,93.97
2023-12-05T23:41:31.438Z,94.80
2023-12-05T23:44:01.484Z,92.73
2023-12-05T23:46:30.482Z,92.63
2023-12-05T23:48:59.136Z,87.77
2023-12-05T23:51:27.663Z,92.60
2023-12-05T23:53:59.095Z,86.53
2023-12-05T23:56:28.734Z,80.00
2023-12-05T23:58:57.509Z,87.50
